Time;durP1;ratioP1;P1;durP2;ratioP2;P2;SDS_P1;SDS_P2;PMS_P1;PMS_P2;Temp;Humidity;BMP_temperature;BMP_pressure;BME280_temperature;BME280_humidity;BME280_pressure;Samples;Min_cycle;Max_cycle;Signal;HPM_P1;HPM_P2
2021/09/22 00:00:17;;;;;;;;;;;;;;;22.08;29.07;98414.47;4904951;29;1385;-79
2021/09/22 00:02:42;;;;;;;;;;;;;;;22.04;29.36;98416.56;4905111;29;656;-79
2021/09/22 00:05:08;;;;;;;;;;;;;;;21.95;29.26;98419.19;4905578;29;632;-79
2021/09/22 00:07:33;;;;;;;;;;;;;;;22.10;29.35;98417.63;4905211;29;966;-79
2021/09/22 00:09:59;;;;;;;;;;;;;;;22.04;29.15;98416.56;4905050;29;1360;-79
2021/09/22 00:12:25;;;;;;;;;;;;;;;21.93;29.06;98416.00;4904743;29;890;-80
2021/09/22 00:14:50;;;;;;;;;;;;;;;22.05;29.03;98413.28;4904715;29;1907;-79
2021/09/22 00:17:25;;;;;;;;;;;;;;;21.94;29.19;98407.06;4904836;29;721;-79
2021/09/22 00:19:50;;;;;;;;;;;;;;;22.02;29.02;98396.34;4905273;29;1373;-79
2021/09/22 00:22:16;;;;;;;;;;;;;;;22.08;29.10;98406.75;4904924;29;1047;-80
2021/09/22 00:24:41;;;;;;;;;;;;;;;22.15;28.84;98394.47;4904767;29;1341;-79
2021/09/22 00:27:07;;;;;;;;;;;;;;;21.99;29.27;98391.59;4905166;29;965;-79
2021/09/22 00:29:41;;;;;;;;;;;;;;;21.98;29.33;98387.16;4905283;29;700;-79
2021/09/22 00:32:08;;;;;;;;;;;;;;;21.96;29.21;98383.94;4904981;29;1361;-79
2021/09/22 00:34:33;;;;;;;;;;;;;;;21.97;29.05;98377.06;4905082;29;569;-79
2021/09/22 00:36:59;;;;;;;;;;;;;;;22.12;28.96;98378.34;4904707;29;1899;-79
2021/09/22 00:39:28;;;;;;;;;;;;;;;22.14;29.17;98375.88;4904805;29;854;-79
2021/09/22 00:41:54;;;;;;;;;;;;;;;21.73;29.64;98368.66;4904115;29;1341;-79
2021/09/22 00:44:19;;;;;;;;;;;;;;;22.03;28.90;98364.75;4903186;29;1108;-79
2021/09/22 00:46:47;;;;;;;;;;;;;;;22.07;28.98;98376.00;4904955;29;716;-79
2021/09/22 00:49:13;;;;;;;;;;;;;;;21.99;28.93;98371.75;4905092;29;617;-80
2021/09/22 00:51:44;;;;;;;;;;;;;;;22.05;28.91;98356.59;4903924;29;1507;-79
2021/09/22 00:54:11;;;;;;;;;;;;;;;22.08;28.82;98366.28;4904646;29;953;-79
2021/09/22 00:56:36;;;;;;;;;;;;;;;21.99;29.30;98360.41;4904719;29;1903;-79
2021/09/22 00:59:02;;;;;;;;;;;;;;;21.98;29.20;98356.00;4904898;29;668;-79
2021/09/22 01:01:27;;;;;;;;;;;;;;;21.99;29.07;98351.91;4904230;29;1444;-79
2021/09/22 01:03:53;;;;;;;;;;;;;;;22.04;29.24;98359.91;4903607;29;1328;-80
2021/09/22 01:06:18;;;;;;;;;;;;;;;22.02;29.15;98368.00;4904424;29;933;-79
2021/09/22 01:08:43;;;;;;;;;;;;;;;21.99;29.30;98366.06;4904582;29;976;-79
2021/09/22 01:11:09;;;;;;;;;;;;;;;22.05;29.32;98361.47;4903978;29;1086;-79
2021/09/22 01:13:34;;;;;;;;;;;;;;;21.76;29.79;98353.63;4904387;29;1461;-80
2021/09/22 01:16:07;;;;;;;;;;;;;;;21.91;29.35;98353.28;4904751;29;1907;-79
2021/09/22 01:18:32;;;;;;;;;;;;;;;21.97;29.48;98348.72;4904774;29;612;-79
2021/09/22 01:20:58;;;;;;;;;;;;;;;22.02;29.15;98351.00;4903821;29;1142;-79
2021/09/22 01:23:25;;;;;;;;;;;;;;;22.01;29.26;98349.44;4888202;29;1379;-79
2021/09/22 01:25:54;;;;;;;;;;;;;;;22.04;29.03;98342.88;4903942;29;966;-79
2021/09/22 01:28:21;;;;;;;;;;;;;;;22.00;29.30;98337.28;4904283;29;1425;-80
2021/09/22 01:30:49;;;;;;;;;;;;;;;21.95;29.09;98343.47;4904329;29;1343;-79
2021/09/22 01:33:15;;;;;;;;;;;;;;;22.02;29.06;98339.69;4903789;29;1400;-79
2021/09/22 01:35:48;;;;;;;;;;;;;;;21.98;29.19;98341.81;4903766;29;1903;-79
2021/09/22 01:38:21;;;;;;;;;;;;;;;21.95;29.39;98332.16;4903677;29;1193;-79
2021/09/22 01:40:53;;;;;;;;;;;;;;;21.99;29.24;98340.56;4904054;29;1253;-79
2021/09/22 01:43:19;;;;;;;;;;;;;;;22.03;29.36;98335.63;4903972;29;1295;-80
2021/09/22 01:45:47;;;;;;;;;;;;;;;21.86;29.75;98329.09;4903819;29;1389;-79
2021/09/22 01:48:14;;;;;;;;;;;;;;;21.87;29.36;98327.09;4903922;29;1335;-79
2021/09/22 01:50:40;;;;;;;;;;;;;;;22.05;29.16;98325.44;4903626;29;1121;-79
2021/09/22 01:53:06;;;;;;;;;;;;;;;21.93;29.51;98325.34;4904139;29;1263;-79
2021/09/22 01:55:31;;;;;;;;;;;;;;;22.01;29.22;98332.44;4906680;29;2013;-79
2021/09/22 01:58:06;;;;;;;;;;;;;;;22.06;29.29;98326.22;4907426;29;1210;-79
2021/09/22 02:00:53;;;;;;;;;;;;;;;21.99;29.41;98326.41;4907718;29;1475;-79
2021/09/22 02:03:35;;;;;;;;;;;;;;;21.97;29.50;98326.06;4907346;29;1133;-79
2021/09/22 02:06:06;;;;;;;;;;;;;;;22.05;29.27;98321.81;4906820;29;1350;-79
2021/09/22 02:08:33;;;;;;;;;;;;;;;22.07;28.96;98325.00;4907001;29;1268;-79
2021/09/22 02:11:06;;;;;;;;;;;;;;;21.86;29.50;98326.28;4907291;29;1309;-79
2021/09/22 02:13:34;;;;;;;;;;;;;;;21.91;29.37;98327.78;4892151;29;1197;-79
2021/09/22 02:16:00;;;;;;;;;;;;;;;21.88;29.58;98323.03;4891233;29;1903;-79
2021/09/22 02:18:48;;;;;;;;;;;;;;;21.89;29.48;98322.59;4902422;29;1099;-79
2021/09/22 02:21:15;;;;;;;;;;;;;;;21.94;29.06;98322.06;4906701;29;1318;-79
2021/09/22 02:23:41;;;;;;;;;;;;;;;22.05;28.90;98327.47;4906627;29;1158;-79
2021/09/22 02:26:08;;;;;;;;;;;;;;;21.97;29.10;98320.41;4891424;29;1418;-79
2021/09/22 02:28:38;;;;;;;;;;;;;;;21.97;28.94;98326.06;4906790;29;1401;-79
2021/09/22 02:31:03;;;;;;;;;;;;;;;21.67;29.62;98325.09;4891248;29;1460;-80
2021/09/22 02:33:42;;;;;;;;;;;;;;;21.84;29.03;98318.22;4906808;29;1181;-80
2021/09/22 02:36:07;;;;;;;;;;;;;;;21.80;29.31;98320.34;4906070;29;1895;-80
2021/09/22 02:38:51;;;;;;;;;;;;;;;21.86;29.03;98323.44;4906107;29;1500;-79
2021/09/22 02:41:16;;;;;;;;;;;;;;;21.95;29.13;98320.03;4906431;29;1433;-79
2021/09/22 02:43:42;;;;;;;;;;;;;;;22.01;28.90;98315.44;4907100;29;1033;-79
2021/09/22 02:46:07;;;;;;;;;;;;;;;21.99;28.96;98323.56;4906606;29;1265;-79
2021/09/22 02:48:49;;;;;;;;;;;;;;;21.95;28.99;98314.34;4906387;29;1484;-79
2021/09/22 02:51:14;;;;;;;;;;;;;;;21.99;28.86;98312.25;4905806;29;1154;-79
2021/09/22 02:53:40;;;;;;;;;;;;;;;21.92;28.75;98306.75;4905962;29;927;-79
2021/09/22 02:56:05;;;;;;;;;;;;;;;21.97;28.98;98309.06;4906338;29;1962;-79
2021/09/22 02:58:31;;;;;;;;;;;;;;;21.82;29.16;98309.38;4905752;29;1818;-79
2021/09/22 03:00:58;;;;;;;;;;;;;;;21.89;28.71;98318.94;4906068;29;1312;-79
2021/09/22 03:03:24;;;;;;;;;;;;;;;21.98;28.59;98305.78;4890674;29;1185;-80
2021/09/22 03:05:49;;;;;;;;;;;;;;;21.94;28.99;98321.25;4905640;29;959;-79
2021/09/22 03:08:14;;;;;;;;;;;;;;;21.68;29.52;98306.06;4906116;29;1463;-79
2021/09/22 03:10:40;;;;;;;;;;;;;;;21.90;28.74;98310.00;4906603;29;1034;-79
2021/09/22 03:13:06;;;;;;;;;;;;;;;22.01;29.03;98309.75;4905853;29;1350;-78
2021/09/22 03:15:31;;;;;;;;;;;;;;;21.98;28.94;98305.00;4906009;29;1895;-79
2021/09/22 03:17:57;;;;;;;;;;;;;;;22.02;28.93;98305.69;4905547;29;1409;-77
2021/09/22 03:20:22;;;;;;;;;;;;;;;21.87;29.07;98308.06;4906129;29;1152;-79
2021/09/22 03:22:48;;;;;;;;;;;;;;;22.32;29.74;98302.53;4905722;29;1195;-79
2021/09/22 03:25:17;;;;;;;;;;;;;;;22.51;30.07;98294.41;4906302;29;835;-79
2021/09/22 03:27:43;;;;;;;;;;;;;;;22.63;30.36;98296.50;4889742;29;1429;-79
2021/09/22 03:30:12;;;;;;;;;;;;;;;22.28;30.48;98296.19;4905758;29;1335;-79
2021/09/22 03:33:00;;;;;;;;;;;;;;;22.10;30.83;98296.59;4900672;29;1353;-79
2021/09/22 03:35:26;;;;;;;;;;;;;;;22.11;30.60;98297.41;4905374;29;1899;-79
2021/09/22 03:37:52;;;;;;;;;;;;;;;22.04;30.88;98291.88;4905017;29;1410;-79
2021/09/22 03:40:17;;;;;;;;;;;;;;;22.05;30.76;98299.13;4905509;29;895;-79
2021/09/22 03:42:43;;;;;;;;;;;;;;;22.05;30.78;98293.47;4905549;29;1512;-79
2021/09/22 03:45:12;;;;;;;;;;;;;;;22.18;30.70;98307.78;4905380;29;1191;-79
2021/09/22 03:47:38;;;;;;;;;;;;;;;22.03;30.92;98302.44;4905768;29;1353;-78
2021/09/22 03:50:04;;;;;;;;;;;;;;;22.07;30.90;98302.31;4905081;29;1157;-79
2021/09/22 03:52:46;;;;;;;;;;;;;;;22.06;30.52;98306.41;4904859;29;1370;-80
2021/09/22 03:55:11;;;;;;;;;;;;;;;22.06;30.55;98295.06;4905655;29;1970;-79
2021/09/22 03:57:37;;;;;;;;;;;;;;;22.01;30.87;98298.41;4905689;29;657;-80
2021/09/22 04:00:03;;;;;;;;;;;;;;;22.05;30.57;98296.31;4904968;29;1554;-79
2021/09/22 04:02:38;;;;;;;;;;;;;;;22.09;30.25;98299.88;4905620;29;630;-80
2021/09/22 04:05:07;;;;;;;;;;;;;;;22.07;30.42;98293.81;4905060;29;1303;-80
2021/09/22 04:07:33;;;;;;;;;;;;;;;22.20;30.13;98289.09;4904514;29;1243;-80
2021/09/22 04:09:59;;;;;;;;;;;;;;;22.15;30.34;98286.78;4904773;29;1335;-79
2021/09/22 04:12:26;;;;;;;;;;;;;;;22.03;30.47;98279.75;4905477;29;637;-79
2021/09/22 04:14:53;;;;;;;;;;;;;;;22.12;30.30;98292.53;4904777;29;1976;-80
2021/09/22 04:17:19;;;;;;;;;;;;;;;21.99;30.33;98290.38;4904434;29;1189;-79
2021/09/22 04:19:45;;;;;;;;;;;;;;;21.77;30.74;98292.13;4905092;29;924;-79
2021/09/22 04:22:12;;;;;;;;;;;;;;;22.18;29.73;98297.25;4904865;29;1378;-79
2021/09/22 04:24:37;;;;;;;;;;;;;;;21.95;30.06;98283.19;4904819;29;1178;-79
2021/09/22 04:27:03;;;;;;;;;;;;;;;21.83;30.37;98288.31;4904669;29;1258;-79
2021/09/22 04:29:46;;;;;;;;;;;;;;;22.00;29.87;98291.97;4904461;29;1246;-78
2021/09/22 04:32:30;;;;;;;;;;;;;;;22.03;29.78;98293.91;4904980;29;853;-79
2021/09/22 04:35:14;;;;;;;;;;;;;;;21.99;29.61;98289.56;4904679;29;1899;-79
2021/09/22 04:37:57;;;;;;;;;;;;;;;22.05;29.63;98299.13;4905080;29;524;-80
2021/09/22 04:40:41;;;;;;;;;;;;;;;22.07;29.74;98290.97;4905141;29;610;-79
2021/09/22 04:43:30;;;;;;;;;;;;;;;22.04;29.36;98297.56;4886784;29;1139;-79
2021/09/22 04:46:14;;;;;;;;;;;;;;;21.97;29.60;98309.84;4904952;29;526;-79
2021/09/22 04:48:58;;;;;;;;;;;;;;;21.93;29.58;98305.50;4904590;29;1056;-79
2021/09/22 04:51:42;;;;;;;;;;;;;;;22.02;29.50;98305.69;4904003;29;927;-79
2021/09/22 04:54:26;;;;;;;;;;;;;;;22.00;29.60;98302.50;4904937;29;689;-80
2021/09/22 04:57:10;;;;;;;;;;;;;;;22.00;29.66;98302.50;4904821;29;1982;-78
2021/09/22 04:59:54;;;;;;;;;;;;;;;22.00;29.47;98299.66;4904741;29;641;-79
2021/09/22 05:02:38;;;;;;;;;;;;;;;22.05;29.44;98301.97;4907201;29;1102;-79
2021/09/22 05:05:22;;;;;;;;;;;;;;;22.01;29.59;98302.06;4904500;29;922;-79
2021/09/22 05:08:06;;;;;;;;;;;;;;;21.90;29.64;98306.38;4904504;29;907;-79
2021/09/22 05:10:50;;;;;;;;;;;;;;;21.94;29.87;98309.94;4904623;29;658;-79
2021/09/22 05:13:35;;;;;;;;;;;;;;;21.94;29.69;98305.06;4904136;29;603;-79
2021/09/22 05:16:19;;;;;;;;;;;;;;;22.01;29.83;98298.41;4903965;29;1898;-78
2021/09/22 05:19:02;;;;;;;;;;;;;;;21.99;29.58;98307.38;4890862;29;577;-79
2021/09/22 05:21:46;;;;;;;;;;;;;;;22.11;29.45;98303.06;4903970;29;1046;-80
2021/09/22 05:24:30;;;;;;;;;;;;;;;22.10;29.68;98301.44;4904257;29;936;-79
2021/09/22 05:27:14;;;;;;;;;;;;;;;22.07;29.85;98297.47;4904727;29;534;-79
2021/09/22 05:29:58;;;;;;;;;;;;;;;22.08;29.78;98298.28;4910261;29;1118;-79
2021/09/22 05:32:42;;;;;;;;;;;;;;;22.00;29.57;98311.00;4914795;29;1015;-78
2021/09/22 05:35:26;;;;;;;;;;;;;;;22.05;29.55;98304.81;4915889;29;1902;-79
2021/09/22 05:38:10;;;;;;;;;;;;;;;22.01;29.90;98316.22;4917140;29;1041;-79
2021/09/22 05:40:54;;;;;;;;;;;;;;;21.97;30.01;98312.69;4914854;29;1075;-79
2021/09/22 05:43:48;;;;;;;;;;;;;;;22.16;29.47;98316.72;4859766;29;1160;-79
2021/09/22 05:46:33;;;;;;;;;;;;;;;22.02;29.66;98319.84;4917658;29;1091;-79
2021/09/22 05:49:17;;;;;;;;;;;;;;;21.99;29.70;98317.91;4913623;29;943;-78
2021/09/22 05:52:01;;;;;;;;;;;;;;;21.88;29.97;98320.19;4914931;29;1139;-79
2021/09/22 05:54:45;;;;;;;;;;;;;;;22.10;29.55;98315.63;4913095;29;993;-78
2021/09/22 05:57:29;;;;;;;;;;;;;;;22.08;29.66;98303.94;4911471;29;1174;-79
2021/09/22 06:00:13;;;;;;;;;;;;;;;21.99;29.59;98300.91;4917727;29;1027;-79
2021/09/22 06:02:38;;;;;;;;;;;;;;;21.87;30.13;98301.59;4907395;29;1133;-79
2021/09/22 06:05:30;;;;;;;;;;;;;;;21.93;30.07;98299.84;4891161;29;1112;-79
2021/09/22 06:08:25;;;;;;;;;;;;;;;21.95;30.02;98277.53;4882110;29;1196;-79
2021/09/22 06:11:16;;;;;;;;;;;;;;;21.98;29.77;98282.31;4870533;29;1296;-79
2021/09/22 06:14:03;;;;;;;;;;;;;;;22.00;29.58;98291.97;4898707;29;1170;-79
2021/09/22 06:16:29;;;;;;;;;;;;;;;22.15;29.51;98291.66;4891025;29;1978;-78
2021/09/22 06:19:06;;;;;;;;;;;;;;;22.08;29.78;98296.22;4906374;29;1342;-79
2021/09/22 06:21:31;;;;;;;;;;;;;;;22.16;29.53;98293.25;4917564;29;1414;-79
2021/09/22 06:23:57;;;;;;;;;;;;;;;22.14;29.19;98302.19;4917600;29;1046;-79
2021/09/22 06:26:23;;;;;;;;;;;;;;;22.04;29.57;98291.88;4899608;29;1194;-80
2021/09/22 06:28:48;;;;;;;;;;;;;;;22.15;29.66;98298.13;4914724;29;1332;-79
2021/09/22 06:31:14;;;;;;;;;;;;;;;22.19;29.58;98300.88;4915368;29;1196;-79
2021/09/22 06:33:40;;;;;;;;;;;;;;;22.06;29.50;98290.19;4916296;29;1154;-79
2021/09/22 06:36:25;;;;;;;;;;;;;;;22.02;29.85;98297.19;4916121;29;1907;-79
2021/09/22 06:38:52;;;;;;;;;;;;;;;22.08;29.77;98284.09;4901048;29;1339;-78
2021/09/22 06:41:17;;;;;;;;;;;;;;;22.12;29.49;98281.97;4910515;29;1174;-79
2021/09/22 06:43:54;;;;;;;;;;;;;;;21.94;29.73;98284.44;4915139;29;1225;-79
2021/09/22 06:46:20;;;;;;;;;;;;;;;22.27;29.27;98271.91;4913243;29;1221;-79
2021/09/22 06:48:45;;;;;;;;;;;;;;;22.03;29.49;98270.47;4915930;29;1184;-79
2021/09/22 06:51:11;;;;;;;;;;;;;;;22.02;29.77;98266.84;4905225;29;808;-79
2021/09/22 06:53:42;;;;;;;;;;;;;;;22.19;29.56;98266.88;4906939;29;624;-79
2021/09/22 06:56:08;;;;;;;;;;;;;;;22.17;29.44;98270.13;4905845;29;1911;-80
2021/09/22 06:58:33;;;;;;;;;;;;;;;22.12;29.47;98270.66;4906662;29;899;-79
2021/09/22 07:01:05;;;;;;;;;;;;;;;22.17;29.37;98272.94;4906781;29;962;-79
2021/09/22 07:03:30;;;;;;;;;;;;;;;21.89;29.76;98273.63;4906721;29;699;-79
2021/09/22 07:05:56;;;;;;;;;;;;;;;22.12;29.39;98269.84;4906720;29;648;-79
2021/09/22 07:08:21;;;;;;;;;;;;;;;22.18;29.65;98274.56;4906703;29;715;-79
2021/09/22 07:10:50;;;;;;;;;;;;;;;22.23;29.38;98279.72;4906325;29;1121;-79
2021/09/22 07:13:16;;;;;;;;;;;;;;;22.14;29.35;98284.41;4906251;29;928;-79
2021/09/22 07:15:42;;;;;;;;;;;;;;;22.06;29.62;98290.19;4905831;29;1907;-78
2021/09/22 07:18:07;;;;;;;;;;;;;;;22.19;29.46;98298.84;4906489;29;561;-79
2021/09/22 07:20:33;;;;;;;;;;;;;;;22.15;29.50;98298.13;4906474;29;672;-79
2021/09/22 07:22:59;;;;;;;;;;;;;;;22.19;29.62;98293.16;4905709;29;720;-79
2021/09/22 07:25:24;;;;;;;;;;;;;;;22.22;29.43;98286.59;4905368;29;1047;-79
2021/09/22 07:27:50;;;;;;;;;;;;;;;22.22;29.75;98291.47;4905990;29;1019;-79
2021/09/22 07:30:15;;;;;;;;;;;;;;;22.04;30.06;98280.56;4906007;29;1097;-78
2021/09/22 07:32:41;;;;;;;;;;;;;;;22.09;29.83;98283.66;4906248;29;696;-79
2021/09/22 07:35:07;;;;;;;;;;;;;;;22.03;29.75;98270.47;4874381;29;1960;-79
2021/09/22 07:37:34;;;;;;;;;;;;;;;21.94;29.79;98267.44;4905074;29;814;-79
2021/09/22 07:39:59;;;;;;;;;;;;;;;22.03;30.02;98259.13;4905110;29;1003;-79
2021/09/22 07:42:24;;;;;;;;;;;;;;;21.89;30.21;98267.97;4904980;29;932;-79
2021/09/22 07:44:53;;;;;;;;;;;;;;;22.09;29.98;98254.53;4905756;29;1047;-79
2021/09/22 07:47:19;;;;;;;;;;;;;;;22.36;29.54;98269.25;4905027;29;1119;-79
2021/09/22 07:49:45;;;;;;;;;;;;;;;22.23;29.34;98276.88;4905924;29;680;-79
2021/09/22 07:52:10;;;;;;;;;;;;;;;22.14;29.82;98268.19;4904671;29;655;-79
2021/09/22 07:54:38;;;;;;;;;;;;;;;22.03;29.78;98262.75;4905718;29;912;-79
2021/09/22 07:57:04;;;;;;;;;;;;;;;22.00;29.73;98257.16;4904736;29;1907;-79
2021/09/22 07:59:30;;;;;;;;;;;;;;;21.99;29.50;98252.75;4889584;29;1174;-78
2021/09/22 08:01:55;;;;;;;;;;;;;;;22.09;29.30;98251.69;4905648;29;728;-79
2021/09/22 08:04:21;;;;;;;;;;;;;;;21.97;29.41;98241.06;4905497;29;677;-79
2021/09/22 08:06:46;;;;;;;;;;;;;;;21.97;29.48;98238.22;4905672;29;648;-80
2021/09/22 08:09:12;;;;;;;;;;;;;;;21.91;29.57;98229.44;4905465;29;920;-79
2021/09/22 08:11:37;;;;;;;;;;;;;;;21.94;29.60;98224.94;4905223;29;903;-79
2021/09/22 08:14:03;;;;;;;;;;;;;;;22.06;29.46;98235.56;4904823;29;962;-79
2021/09/22 08:16:28;;;;;;;;;;;;;;;22.12;29.31;98228.16;4905361;29;1903;-79
2021/09/22 08:18:54;;;;;;;;;;;;;;;21.84;29.64;98216.25;4905200;29;728;-79
2021/09/22 08:21:19;;;;;;;;;;;;;;;21.95;29.22;98221.66;4905480;29;728;-80
2021/09/22 08:23:45;;;;;;;;;;;;;;;21.91;29.30;98220.16;4905066;29;939;-79
2021/09/22 08:26:10;;;;;;;;;;;;;;;21.88;29.28;98227.50;4905013;29;916;-79
2021/09/22 08:28:35;;;;;;;;;;;;;;;21.93;29.50;98223.34;4905170;29;943;-79
2021/09/22 08:31:01;;;;;;;;;;;;;;;21.91;29.27;98214.47;4905301;29;660;-79
2021/09/22 08:33:26;;;;;;;;;;;;;;;21.88;29.03;98207.69;4905118;29;625;-79
2021/09/22 08:35:52;;;;;;;;;;;;;;;21.84;29.42;98210.59;4904930;29;1960;-79
2021/09/22 08:38:17;;;;;;;;;;;;;;;21.84;29.42;98195.63;4904972;29;971;-79
2021/09/22 08:40:43;;;;;;;;;;;;;;;21.88;29.17;98195.56;4904803;29;936;-79
2021/09/22 08:43:08;;;;;;;;;;;;;;;21.90;29.47;98198.72;4904990;29;909;-79
2021/09/22 08:45:34;;;;;;;;;;;;;;;21.88;29.35;98195.56;4904927;29;1030;-79
2021/09/22 08:47:59;;;;;;;;;;;;;;;21.92;29.12;98182.91;4904433;29;824;-79
2021/09/22 08:50:25;;;;;;;;;;;;;;;22.00;29.32;98183.50;4904042;29;675;-79
2021/09/22 08:52:50;;;;;;;;;;;;;;;21.85;29.15;98178.19;4904728;29;1087;-79
2021/09/22 08:55:16;;;;;;;;;;;;;;;21.73;29.28;98170.41;4904665;29;1895;-79
2021/09/22 08:57:41;;;;;;;;;;;;;;;21.85;29.21;98172.50;4904829;29;872;-79
2021/09/22 09:00:08;;;;;;;;;;;;;;;21.91;29.50;98169.94;4904139;29;724;-79
2021/09/22 09:02:40;;;;;;;;;;;;;;;21.87;29.15;98174.94;4904393;29;646;-79
2021/09/22 09:05:07;;;;;;;;;;;;;;;21.97;29.14;98173.88;4904654;29;645;-79
2021/09/22 09:07:33;;;;;;;;;;;;;;;21.95;29.14;98181.19;4903824;29;891;-79
2021/09/22 09:10:04;;;;;;;;;;;;;;;21.85;29.16;98166.84;4904253;29;860;-78
2021/09/22 09:12:29;;;;;;;;;;;;;;;21.83;29.23;98175.00;4873584;29;1348;-79
2021/09/22 09:14:58;;;;;;;;;;;;;;;21.87;29.11;98174.13;4904858;29;593;-79
2021/09/22 09:17:37;;;;;;;;;;;;;;;22.02;28.61;98170.50;4904701;29;1899;-79
2021/09/22 09:20:12;;;;;;;;;;;;;;;22.06;28.56;98164.72;4904128;29;740;-79
2021/09/22 09:22:38;;;;;;;;;;;;;;;22.02;28.89;98172.50;4903811;29;943;-79
2021/09/22 09:25:04;;;;;;;;;;;;;;;21.77;29.14;98159.78;4904121;29;940;-79
2021/09/22 09:27:34;;;;;;;;;;;;;;;21.78;29.31;98161.38;4904672;29;663;-79
2021/09/22 09:30:12;;;;;;;;;;;;;;;21.80;29.10;98158.88;4904585;29;660;-79
2021/09/22 09:32:38;;;;;;;;;;;;;;;21.88;28.88;98158.72;4904564;29;652;-79
2021/09/22 09:35:03;;;;;;;;;;;;;;;21.93;29.01;98150.50;4904554;29;1980;-80
2021/09/22 09:37:41;;;;;;;;;;;;;;;21.94;28.73;98151.28;4904230;29;923;-79
2021/09/22 09:40:25;;;;;;;;;;;;;;;21.94;29.06;98146.41;4904334;29;1005;-79
2021/09/22 09:42:52;;;;;;;;;;;;;;;21.92;28.61;98153.78;4904571;29;732;-79
2021/09/22 09:45:19;;;;;;;;;;;;;;;21.78;28.93;98138.72;4904723;29;1182;-80
2021/09/22 09:47:57;;;;;;;;;;;;;;;21.69;29.35;98135.69;4903775;29;696;-79
2021/09/22 09:50:22;;;;;;;;;;;;;;;21.75;28.95;98133.94;4904408;29;653;-79
2021/09/22 09:53:00;;;;;;;;;;;;;;;21.85;28.74;98127.19;4903508;29;992;-79
2021/09/22 09:55:26;;;;;;;;;;;;;;;21.74;29.03;98126.66;4903397;29;1911;-78
2021/09/22 09:57:53;;;;;;;;;;;;;;;21.76;29.06;98112.06;4904353;29;985;-79
2021/09/22 10:00:21;;;;;;;;;;;;;;;21.75;28.79;98116.94;4903705;29;692;-79
2021/09/22 10:02:46;;;;;;;;;;;;;;;21.85;28.68;98121.53;4904258;29;699;-79
2021/09/22 10:05:12;;;;;;;;;;;;;;;21.78;28.81;98116.06;4903523;29;685;-79
2021/09/22 10:07:37;;;;;;;;;;;;;;;21.71;29.01;98116.25;4903819;29;973;-79
2021/09/22 10:10:03;;;;;;;;;;;;;;;21.74;28.82;98109.69;4903232;29;834;-79
2021/09/22 10:12:29;;;;;;;;;;;;;;;21.87;28.70;98106.16;4904150;29;1003;-78
2021/09/22 10:14:54;;;;;;;;;;;;;;;21.82;28.83;98099.78;4919951;29;1286;-79
2021/09/22 10:17:20;;;;;;;;;;;;;;;21.74;28.93;98103.22;4926471;29;1969;-79
2021/09/22 10:19:46;;;;;;;;;;;;;;;21.82;28.48;98104.66;4925375;29;1366;-79
2021/09/22 10:22:12;;;;;;;;;;;;;;;21.97;28.71;98107.91;4926030;29;903;-79
2021/09/22 10:24:38;;;;;;;;;;;;;;;21.80;28.56;98107.91;4925681;29;1112;-78
2021/09/22 10:27:04;;;;;;;;;;;;;;;21.81;28.70;98103.84;4925591;29;676;-79
2021/09/22 10:29:35;;;;;;;;;;;;;;;21.76;28.61;98101.56;4926163;29;677;-79
2021/09/22 10:32:01;;;;;;;;;;;;;;;21.80;28.77;98096.56;4910718;29;625;-79
2021/09/22 10:34:26;;;;;;;;;;;;;;;21.95;28.44;98096.22;4925917;29;1042;-79
2021/09/22 10:36:52;;;;;;;;;;;;;;;21.84;28.55;98102.16;4925768;29;1908;-78
2021/09/22 10:39:39;;;;;;;;;;;;;;;21.73;28.46;98102.44;4925906;29;1059;-79
2021/09/22 10:42:23;;;;;;;;;;;;;;;21.91;28.50;98095.50;4925496;29;661;-78
2021/09/22 10:44:49;;;;;;;;;;;;;;;21.71;28.53;98093.59;4925061;29;1152;-78
2021/09/22 10:47:22;;;;;;;;;;;;;;;21.79;28.40;98089.31;4925294;29;712;-80
2021/09/22 10:49:47;;;;;;;;;;;;;;;21.82;28.30;98079.94;4925679;29;1126;-79
2021/09/22 10:52:32;;;;;;;;;;;;;;;21.70;28.42;98086.31;4925442;29;917;-79
2021/09/22 10:55:17;;;;;;;;;;;;;;;21.74;28.36;98075.69;4925152;29;653;-78
2021/09/22 10:57:44;;;;;;;;;;;;;;;21.69;28.50;98073.41;4925296;29;904;-79
2021/09/22 11:00:09;;;;;;;;;;;;;;;21.75;28.48;98074.44;4925876;29;648;-79
2021/09/22 11:02:44;;;;;;;;;;;;;;;21.73;28.47;98079.78;4925632;29;660;-79
2021/09/22 11:05:09;;;;;;;;;;;;;;;21.66;28.46;98077.13;4925263;29;993;-79
2021/09/22 11:08:08;;;;;;;;;;;;;;;22.05;28.77;98069.63;4925157;29;1000;-79
2021/09/22 11:10:34;;;;;;;;;;;;;;;22.29;29.12;98071.00;4904463;29;1182;-79
2021/09/22 11:13:18;;;;;;;;;;;;;;;22.53;29.30;98062.22;4925440;29;596;-79
2021/09/22 11:15:45;;;;;;;;;;;;;;;22.55;29.38;98060.53;4924863;29;1899;-78
2021/09/22 11:18:10;;;;;;;;;;;;;;;22.10;29.86;98052.06;4925272;29;580;-79
2021/09/22 11:20:35;;;;;;;;;;;;;;;22.01;29.71;98049.88;4924263;29;975;-79
2021/09/22 11:23:10;;;;;;;;;;;;;;;21.82;29.74;98043.13;4915506;29;1149;-79
2021/09/22 11:25:36;;;;;;;;;;;;;;;21.77;29.67;98042.88;4913355;29;1296;-79
2021/09/22 11:28:05;;;;;;;;;;;;;;;21.84;29.64;98051.16;4915437;29;1243;-79
2021/09/22 11:30:31;;;;;;;;;;;;;;;21.84;29.56;98054.00;4905786;29;1247;-79
2021/09/22 11:32:56;;;;;;;;;;;;;;;21.83;29.23;98044.72;4916201;29;1272;-78
2021/09/22 11:35:22;;;;;;;;;;;;;;;21.89;29.24;98047.00;4913383;29;1968;-78
2021/09/22 11:37:51;;;;;;;;;;;;;;;21.81;29.16;98047.19;4910157;29;1232;-79
2021/09/22 11:40:20;;;;;;;;;;;;;;;21.73;29.49;98034.47;4911572;29;1094;-79
2021/09/22 11:43:00;;;;;;;;;;;;;;;21.92;28.87;98046.13;4914774;29;1189;-79
2021/09/22 11:45:45;;;;;;;;;;;;;;;21.92;28.72;98041.25;4911921;29;1181;-79
2021/09/22 11:48:12;;;;;;;;;;;;;;;21.71;29.21;98031.28;4924165;29;1062;-79
2021/09/22 11:50:39;;;;;;;;;;;;;;;21.76;29.00;98029.94;4924524;29;1032;-79
2021/09/22 11:53:08;;;;;;;;;;;;;;;21.88;28.63;98028.41;4924495;29;914;-79
2021/09/22 11:55:34;;;;;;;;;;;;;;;21.87;28.88;98021.16;4923869;29;1907;-79
2021/09/22 11:58:06;;;;;;;;;;;;;;;21.80;28.90;98022.94;4924068;29;700;-79
2021/09/22 12:00:31;;;;;;;;;;;;;;;21.95;28.55;98022.53;4924649;29;688;-79
2021/09/22 12:02:57;;;;;;;;;;;;;;;21.76;28.92;98016.59;4924550;29;683;-79
2021/09/22 12:05:22;;;;;;;;;;;;;;;21.88;28.51;98012.22;4924220;29;962;-79
2021/09/22 12:07:52;;;;;;;;;;;;;;;21.70;28.63;98018.34;4924326;29;890;-79
2021/09/22 12:10:17;;;;;;;;;;;;;;;21.65;28.96;98021.72;4923734;29;852;-80
2021/09/22 12:12:43;;;;;;;;;;;;;;;21.77;28.61;98018.16;4924395;29;660;-79
2021/09/22 12:15:09;;;;;;;;;;;;;;;22.07;28.83;98031.13;4924448;29;1974;-79
2021/09/22 12:17:36;;;;;;;;;;;;;;;22.31;29.04;98016.69;4923751;29;703;-79
2021/09/22 12:20:02;;;;;;;;;;;;;;;22.55;28.95;98020.84;4923602;29;1086;-79
2021/09/22 12:22:29;;;;;;;;;;;;;;;22.15;29.25;98009.06;4923952;29;844;-79
2021/09/22 12:24:54;;;;;;;;;;;;;;;21.95;29.33;98011.22;4923513;29;1081;-79
2021/09/22 12:27:31;;;;;;;;;;;;;;;21.98;28.77;98010.34;4923499;29;760;-79
2021/09/22 12:29:58;;;;;;;;;;;;;;;21.75;29.36;98003.66;4923387;29;674;-79
2021/09/22 12:32:24;;;;;;;;;;;;;;;21.79;29.22;97998.69;4924037;29;720;-79
2021/09/22 12:34:49;;;;;;;;;;;;;;;21.75;29.07;97997.97;4923823;29;1040;-79
2021/09/22 12:37:15;;;;;;;;;;;;;;;21.70;29.15;98001.34;4922697;29;1899;-79
2021/09/22 12:40:00;;;;;;;;;;;;;;;21.89;29.01;98001.69;4923937;29;952;-79
2021/09/22 12:42:46;;;;;;;;;;;;;;;21.77;28.88;98001.19;4924041;29;691;-80
2021/09/22 12:45:12;;;;;;;;;;;;;;;21.66;29.43;97989.34;4923834;29;1104;-79
2021/09/22 12:47:48;;;;;;;;;;;;;;;21.70;29.00;97990.03;4923298;29;676;-79
2021/09/22 12:50:16;;;;;;;;;;;;;;;21.64;29.18;97991.81;4923705;29;987;-80
2021/09/22 12:52:43;;;;;;;;;;;;;;;21.62;29.37;97988.66;4923819;29;932;-79
2021/09/22 12:55:17;;;;;;;;;;;;;;;21.79;28.73;97998.69;4923767;29;1037;-79
2021/09/22 12:57:42;;;;;;;;;;;;;;;21.76;28.98;98001.59;4923124;29;632;-79
2021/09/22 13:00:26;;;;;;;;;;;;;;;21.77;28.71;97995.50;4923706;29;684;-79
2021/09/22 13:03:05;;;;;;;;;;;;;;;21.84;28.48;97989.66;4923698;29;648;-79
2021/09/22 13:05:37;;;;;;;;;;;;;;;21.87;28.65;97992.84;4922791;29;866;-80
2021/09/22 13:08:05;;;;;;;;;;;;;;;22.33;28.79;97986.66;4923308;29;864;-79
2021/09/22 13:10:48;;;;;;;;;;;;;;;22.48;28.34;97975.66;4922910;29;653;-79
2021/09/22 13:13:14;;;;;;;;;;;;;;;22.48;28.27;97989.06;4922936;29;704;-79
2021/09/22 13:15:40;;;;;;;;;;;;;;;22.18;28.97;97991.16;4922829;29;1976;-79
2021/09/22 13:18:05;;;;;;;;;;;;;;;22.01;28.69;97981.88;4923666;29;692;-79